Decoded Metar for KTWF (TWIN FALLS in ID, USA) (IATA:TWF) | Meteo·Mobile Aviation Weather
aviador You're here:

KTWF Decoded Metar

TWIN FALLS in ID, USA
Report Time2019-03-21 01:53:00
UTC Time2019-03-21 02:07:56
Flight Rules vfr VFR
Wind070° at 09 kt
W.Decomp.*RWY 07: 8.7 kt HW 2.5 kt LCW
RWY 12: 3.7 kt HW 8.2 kt LCW
W.Rank070° ranks 13
Current wind is above 070° avg. (7.3)
Visibility9999 m
Phenomena:N/A
Clouds:N/A
Expected CloudBase > 7,200 ft AGL from Temp-Dew spread
CeilingNone
Temp11°C (ISA +4)
Dew Point-7°C (28% RH)
AAT5.0°C
QNH1016 hPa
Density Alt4,610 ft
Elevation4,154 ft
Report Wrong Elevation
Raw Report
KTWF 210153Z 07009KT 10SM CLR 11/M07 A3001 RMK AO2 SLP153
T01061072=

Extra information for KTWF:More info

Metar Taf Metar & Taf Last 4 Metars F.Rules Stats Wind Profile Meteogram Temp Stats Airport Information Weather charts Add Link Nearby VenuesMetar ALERT Operation Metar Decoded Social comments

AIRNAV info for KTWF